sensor_id;sensor_type;location;lat;lon;timestamp;P1;durP1;ratioP1;P2;durP2;ratioP2
22614;SDS011;11474;50.790;0.298;2023-08-20T00:02:10;19.33;;;4.30;;
22614;SDS011;11474;50.790;0.298;2023-08-20T00:04:36;21.40;;;4.27;;
22614;SDS011;11474;50.790;0.298;2023-08-20T00:07:02;19.88;;;4.20;;
22614;SDS011;11474;50.790;0.298;2023-08-20T00:09:29;15.48;;;3.28;;
22614;SDS011;11474;50.790;0.298;2023-08-20T00:11:55;25.53;;;4.07;;
22614;SDS011;11474;50.790;0.298;2023-08-20T00:14:24;18.00;;;3.80;;
22614;SDS011;11474;50.790;0.298;2023-08-20T00:17:07;18.48;;;3.80;;
22614;SDS011;11474;50.790;0.298;2023-08-20T00:19:34;16.00;;;3.05;;
22614;SDS011;11474;50.790;0.298;2023-08-20T00:22:00;16.42;;;3.35;;
22614;SDS011;11474;50.790;0.298;2023-08-20T00:24:26;18.75;;;3.70;;
22614;SDS011;11474;50.790;0.298;2023-08-20T00:26:53;12.93;;;3.20;;
22614;SDS011;11474;50.790;0.298;2023-08-20T00:29:19;16.70;;;3.55;;
22614;SDS011;11474;50.790;0.298;2023-08-20T00:31:45;13.35;;;3.00;;
22614;SDS011;11474;50.790;0.298;2023-08-20T00:34:11;18.23;;;3.10;;
22614;SDS011;11474;50.790;0.298;2023-08-20T00:36:37;19.42;;;3.38;;
22614;SDS011;11474;50.790;0.298;2023-08-20T00:39:03;18.27;;;4.07;;
22614;SDS011;11474;50.790;0.298;2023-08-20T00:41:29;16.77;;;3.40;;
22614;SDS011;11474;50.790;0.298;2023-08-20T00:43:55;16.52;;;3.67;;
22614;SDS011;11474;50.790;0.298;2023-08-20T00:46:21;19.92;;;3.97;;
22614;SDS011;11474;50.790;0.298;2023-08-20T00:48:48;16.67;;;3.70;;
22614;SDS011;11474;50.790;0.298;2023-08-20T00:51:14;23.85;;;3.88;;
22614;SDS011;11474;50.790;0.298;2023-08-20T00:53:40;17.67;;;3.55;;
22614;SDS011;11474;50.790;0.298;2023-08-20T00:56:06;23.20;;;3.85;;
22614;SDS011;11474;50.790;0.298;2023-08-20T00:58:32;21.05;;;3.65;;
22614;SDS011;11474;50.790;0.298;2023-08-20T01:00:58;23.50;;;4.18;;
22614;SDS011;11474;50.790;0.298;2023-08-20T01:03:27;23.13;;;3.95;;
22614;SDS011;11474;50.790;0.298;2023-08-20T01:05:53;21.85;;;4.30;;
22614;SDS011;11474;50.790;0.298;2023-08-20T01:08:35;23.45;;;4.05;;
22614;SDS011;11474;50.790;0.298;2023-08-20T01:11:06;16.35;;;3.33;;
22614;SDS011;11474;50.790;0.298;2023-08-20T01:13:32;21.50;;;4.50;;
22614;SDS011;11474;50.790;0.298;2023-08-20T01:15:58;24.00;;;4.00;;
22614;SDS011;11474;50.790;0.298;2023-08-20T01:18:24;23.23;;;4.28;;
22614;SDS011;11474;50.790;0.298;2023-08-20T01:20:54;27.55;;;4.15;;
22614;SDS011;11474;50.790;0.298;2023-08-20T01:28:37;16.33;;;3.38;;
22614;SDS011;11474;50.790;0.298;2023-08-20T01:31:04;21.38;;;3.25;;
22614;SDS011;11474;50.790;0.298;2023-08-20T01:33:31;18.85;;;3.53;;
22614;SDS011;11474;50.790;0.298;2023-08-20T01:35:58;23.47;;;4.40;;
22614;SDS011;11474;50.790;0.298;2023-08-20T01:38:24;19.92;;;4.10;;
22614;SDS011;11474;50.790;0.298;2023-08-20T01:40:50;22.25;;;3.60;;
22614;SDS011;11474;50.790;0.298;2023-08-20T01:43:16;24.70;;;4.10;;
22614;SDS011;11474;50.790;0.298;2023-08-20T01:45:43;21.85;;;3.75;;
22614;SDS011;11474;50.790;0.298;2023-08-20T01:48:09;27.90;;;4.25;;
22614;SDS011;11474;50.790;0.298;2023-08-20T01:50:35;21.08;;;4.00;;
22614;SDS011;11474;50.790;0.298;2023-08-20T01:53:02;22.60;;;4.05;;
22614;SDS011;11474;50.790;0.298;2023-08-20T01:55:28;23.27;;;4.22;;
22614;SDS011;11474;50.790;0.298;2023-08-20T01:57:54;25.60;;;5.22;;
22614;SDS011;11474;50.790;0.298;2023-08-20T02:00:20;20.02;;;3.80;;
22614;SDS011;11474;50.790;0.298;2023-08-20T02:02:46;21.65;;;4.50;;
22614;SDS011;11474;50.790;0.298;2023-08-20T02:05:12;25.52;;;4.63;;
22614;SDS011;11474;50.790;0.298;2023-08-20T02:07:38;23.13;;;4.38;;
22614;SDS011;11474;50.790;0.298;2023-08-20T02:10:05;26.75;;;4.45;;
22614;SDS011;11474;50.790;0.298;2023-08-20T02:12:31;24.75;;;4.65;;
22614;SDS011;11474;50.790;0.298;2023-08-20T02:14:57;23.25;;;3.90;;
22614;SDS011;11474;50.790;0.298;2023-08-20T02:17:24;28.17;;;4.60;;
22614;SDS011;11474;50.790;0.298;2023-08-20T02:19:50;32.42;;;4.70;;
22614;SDS011;11474;50.790;0.298;2023-08-20T02:22:16;25.38;;;4.53;;
22614;SDS011;11474;50.790;0.298;2023-08-20T02:24:44;28.02;;;4.95;;
22614;SDS011;11474;50.790;0.298;2023-08-20T02:27:10;28.08;;;4.55;;
22614;SDS011;11474;50.790;0.298;2023-08-20T02:29:36;28.58;;;4.47;;
22614;SDS011;11474;50.790;0.298;2023-08-20T02:32:03;24.95;;;4.28;;
22614;SDS011;11474;50.790;0.298;2023-08-20T02:34:29;24.80;;;4.10;;
22614;SDS011;11474;50.790;0.298;2023-08-20T02:36:55;24.02;;;3.83;;
22614;SDS011;11474;50.790;0.298;2023-08-20T02:39:21;22.70;;;4.80;;
22614;SDS011;11474;50.790;0.298;2023-08-20T02:41:49;26.33;;;4.47;;
22614;SDS011;11474;50.790;0.298;2023-08-20T02:44:15;25.73;;;4.35;;
22614;SDS011;11474;50.790;0.298;2023-08-20T02:46:41;26.45;;;4.53;;
22614;SDS011;11474;50.790;0.298;2023-08-20T02:49:09;25.23;;;4.47;;
22614;SDS011;11474;50.790;0.298;2023-08-20T02:51:36;24.58;;;4.28;;
22614;SDS011;11474;50.790;0.298;2023-08-20T02:54:02;24.00;;;4.75;;
22614;SDS011;11474;50.790;0.298;2023-08-20T02:56:28;25.85;;;5.20;;
22614;SDS011;11474;50.790;0.298;2023-08-20T02:58:54;22.35;;;4.78;;
22614;SDS011;11474;50.790;0.298;2023-08-20T03:01:23;27.83;;;5.10;;
22614;SDS011;11474;50.790;0.298;2023-08-20T03:03:50;26.73;;;5.15;;
22614;SDS011;11474;50.790;0.298;2023-08-20T03:06:16;22.67;;;5.00;;
22614;SDS011;11474;50.790;0.298;2023-08-20T03:08:42;29.75;;;5.15;;
22614;SDS011;11474;50.790;0.298;2023-08-20T03:11:09;26.55;;;5.07;;
22614;SDS011;11474;50.790;0.298;2023-08-20T03:13:35;28.55;;;5.65;;
22614;SDS011;11474;50.790;0.298;2023-08-20T03:16:01;27.25;;;4.72;;
22614;SDS011;11474;50.790;0.298;2023-08-20T03:18:28;26.08;;;4.55;;
22614;SDS011;11474;50.790;0.298;2023-08-20T03:20:55;27.73;;;5.22;;
22614;SDS011;11474;50.790;0.298;2023-08-20T03:23:22;28.23;;;5.00;;
22614;SDS011;11474;50.790;0.298;2023-08-20T03:25:49;24.58;;;4.95;;
22614;SDS011;11474;50.790;0.298;2023-08-20T03:28:15;28.27;;;4.78;;
22614;SDS011;11474;50.790;0.298;2023-08-20T03:30:41;20.65;;;4.57;;
22614;SDS011;11474;50.790;0.298;2023-08-20T03:33:08;20.45;;;4.60;;
22614;SDS011;11474;50.790;0.298;2023-08-20T03:35:35;21.87;;;4.97;;
22614;SDS011;11474;50.790;0.298;2023-08-20T03:38:01;20.67;;;4.30;;
22614;SDS011;11474;50.790;0.298;2023-08-20T03:40:27;27.77;;;4.97;;
22614;SDS011;11474;50.790;0.298;2023-08-20T03:42:54;22.15;;;4.72;;
22614;SDS011;11474;50.790;0.298;2023-08-20T03:45:20;27.92;;;4.28;;
22614;SDS011;11474;50.790;0.298;2023-08-20T03:47:46;20.80;;;4.82;;
22614;SDS011;11474;50.790;0.298;2023-08-20T03:50:13;24.65;;;5.07;;
22614;SDS011;11474;50.790;0.298;2023-08-20T03:52:39;23.45;;;4.70;;
22614;SDS011;11474;50.790;0.298;2023-08-20T03:55:05;12.52;;;3.72;;
22614;SDS011;11474;50.790;0.298;2023-08-20T03:57:32;12.00;;;3.80;;
22614;SDS011;11474;50.790;0.298;2023-08-20T03:59:58;22.45;;;4.80;;
22614;SDS011;11474;50.790;0.298;2023-08-20T04:02:24;23.33;;;3.95;;
22614;SDS011;11474;50.790;0.298;2023-08-20T04:04:50;17.57;;;4.20;;
22614;SDS011;11474;50.790;0.298;2023-08-20T04:07:17;22.48;;;4.75;;
22614;SDS011;11474;50.790;0.298;2023-08-20T04:09:43;19.27;;;4.13;;
22614;SDS011;11474;50.790;0.298;2023-08-20T04:12:09;20.02;;;4.50;;
22614;SDS011;11474;50.790;0.298;2023-08-20T04:14:35;23.17;;;4.35;;
22614;SDS011;11474;50.790;0.298;2023-08-20T04:17:02;21.42;;;4.55;;
22614;SDS011;11474;50.790;0.298;2023-08-20T04:19:28;18.80;;;4.20;;
22614;SDS011;11474;50.790;0.298;2023-08-20T04:21:54;23.92;;;4.38;;
22614;SDS011;11474;50.790;0.298;2023-08-20T04:24:20;22.35;;;4.45;;
22614;SDS011;11474;50.790;0.298;2023-08-20T04:26:46;19.80;;;4.07;;
22614;SDS011;11474;50.790;0.298;2023-08-20T04:29:12;29.80;;;4.28;;
22614;SDS011;11474;50.790;0.298;2023-08-20T04:31:38;24.45;;;5.25;;
22614;SDS011;11474;50.790;0.298;2023-08-20T04:34:04;23.38;;;4.25;;
22614;SDS011;11474;50.790;0.298;2023-08-20T04:36:30;22.75;;;4.15;;
22614;SDS011;11474;50.790;0.298;2023-08-20T04:38:56;26.00;;;4.50;;
22614;SDS011;11474;50.790;0.298;2023-08-20T04:41:22;27.48;;;5.28;;
22614;SDS011;11474;50.790;0.298;2023-08-20T04:43:48;28.38;;;4.55;;
22614;SDS011;11474;50.790;0.298;2023-08-20T04:46:14;21.25;;;4.05;;
22614;SDS011;11474;50.790;0.298;2023-08-20T04:48:41;24.23;;;4.10;;
22614;SDS011;11474;50.790;0.298;2023-08-20T04:51:07;25.17;;;4.60;;
22614;SDS011;11474;50.790;0.298;2023-08-20T04:53:33;24.88;;;3.97;;
22614;SDS011;11474;50.790;0.298;2023-08-20T04:55:59;16.52;;;3.65;;
22614;SDS011;11474;50.790;0.298;2023-08-20T04:58:25;18.98;;;4.55;;
22614;SDS011;11474;50.790;0.298;2023-08-20T05:00:51;25.67;;;4.35;;
22614;SDS011;11474;50.790;0.298;2023-08-20T05:03:17;22.50;;;4.55;;
22614;SDS011;11474;50.790;0.298;2023-08-20T05:05:47;25.33;;;4.50;;
22614;SDS011;11474;50.790;0.298;2023-08-20T05:08:13;19.35;;;4.18;;
22614;SDS011;11474;50.790;0.298;2023-08-20T05:10:39;22.67;;;4.72;;
22614;SDS011;11474;50.790;0.298;2023-08-20T05:13:05;23.65;;;4.75;;
22614;SDS011;11474;50.790;0.298;2023-08-20T05:15:32;25.08;;;4.88;;
22614;SDS011;11474;50.790;0.298;2023-08-20T05:17:58;21.38;;;4.22;;
22614;SDS011;11474;50.790;0.298;2023-08-20T05:20:24;18.35;;;3.60;;
22614;SDS011;11474;50.790;0.298;2023-08-20T05:22:50;14.98;;;3.55;;
22614;SDS011;11474;50.790;0.298;2023-08-20T05:25:16;22.90;;;4.57;;
22614;SDS011;11474;50.790;0.298;2023-08-20T05:27:42;13.95;;;3.45;;
22614;SDS011;11474;50.790;0.298;2023-08-20T05:30:08;18.93;;;3.77;;
22614;SDS011;11474;50.790;0.298;2023-08-20T05:32:34;18.33;;;4.03;;
22614;SDS011;11474;50.790;0.298;2023-08-20T05:35:01;19.63;;;3.72;;
22614;SDS011;11474;50.790;0.298;2023-08-20T05:37:29;18.80;;;4.35;;
22614;SDS011;11474;50.790;0.298;2023-08-20T05:39:55;28.00;;;4.68;;
22614;SDS011;11474;50.790;0.298;2023-08-20T05:42:21;24.35;;;4.13;;
22614;SDS011;11474;50.790;0.298;2023-08-20T05:44:47;20.60;;;4.07;;
22614;SDS011;11474;50.790;0.298;2023-08-20T05:47:13;17.67;;;4.30;;
22614;SDS011;11474;50.790;0.298;2023-08-20T05:49:39;15.77;;;4.13;;
22614;SDS011;11474;50.790;0.298;2023-08-20T05:52:05;17.80;;;3.70;;
22614;SDS011;11474;50.790;0.298;2023-08-20T05:54:31;17.13;;;3.88;;
22614;SDS011;11474;50.790;0.298;2023-08-20T05:56:58;22.33;;;4.78;;
22614;SDS011;11474;50.790;0.298;2023-08-20T05:59:24;24.13;;;4.03;;
22614;SDS011;11474;50.790;0.298;2023-08-20T06:01:50;25.38;;;4.82;;
22614;SDS011;11474;50.790;0.298;2023-08-20T06:04:16;25.67;;;5.78;;
22614;SDS011;11474;50.790;0.298;2023-08-20T06:06:43;20.00;;;4.50;;
22614;SDS011;11474;50.790;0.298;2023-08-20T06:09:09;23.67;;;4.50;;
22614;SDS011;11474;50.790;0.298;2023-08-20T06:11:35;26.00;;;4.88;;
22614;SDS011;11474;50.790;0.298;2023-08-20T06:14:02;23.03;;;4.23;;
22614;SDS011;11474;50.790;0.298;2023-08-20T06:16:28;20.42;;;4.45;;
22614;SDS011;11474;50.790;0.298;2023-08-20T06:18:54;25.50;;;5.13;;
22614;SDS011;11474;50.790;0.298;2023-08-20T06:21:20;21.83;;;5.13;;
22614;SDS011;11474;50.790;0.298;2023-08-20T06:23:46;23.75;;;4.82;;
22614;SDS011;11474;50.790;0.298;2023-08-20T06:26:12;25.37;;;4.97;;
22614;SDS011;11474;50.790;0.298;2023-08-20T06:28:38;23.50;;;5.20;;
22614;SDS011;11474;50.790;0.298;2023-08-20T06:31:04;23.00;;;4.25;;
22614;SDS011;11474;50.790;0.298;2023-08-20T06:33:31;22.13;;;4.70;;
22614;SDS011;11474;50.790;0.298;2023-08-20T06:35:57;24.70;;;4.80;;
22614;SDS011;11474;50.790;0.298;2023-08-20T06:38:23;23.85;;;4.97;;
22614;SDS011;11474;50.790;0.298;2023-08-20T06:40:49;32.38;;;5.13;;
22614;SDS011;11474;50.790;0.298;2023-08-20T06:43:16;27.35;;;4.38;;
22614;SDS011;11474;50.790;0.298;2023-08-20T06:45:42;20.90;;;4.28;;
22614;SDS011;11474;50.790;0.298;2023-08-20T06:48:08;21.63;;;4.50;;
22614;SDS011;11474;50.790;0.298;2023-08-20T06:50:34;17.70;;;4.18;;
22614;SDS011;11474;50.790;0.298;2023-08-20T06:53:00;28.92;;;4.68;;
22614;SDS011;11474;50.790;0.298;2023-08-20T06:55:26;22.33;;;3.72;;
22614;SDS011;11474;50.790;0.298;2023-08-20T06:57:52;25.33;;;4.25;;
22614;SDS011;11474;50.790;0.298;2023-08-20T07:00:18;20.52;;;3.60;;
22614;SDS011;11474;50.790;0.298;2023-08-20T07:02:44;21.40;;;3.80;;
22614;SDS011;11474;50.790;0.298;2023-08-20T07:05:10;19.73;;;3.53;;
22614;SDS011;11474;50.790;0.298;2023-08-20T07:07:37;17.50;;;4.25;;
22614;SDS011;11474;50.790;0.298;2023-08-20T07:10:03;21.08;;;3.75;;
22614;SDS011;11474;50.790;0.298;2023-08-20T07:12:29;19.70;;;4.00;;
22614;SDS011;11474;50.790;0.298;2023-08-20T07:14:55;19.83;;;3.47;;
22614;SDS011;11474;50.790;0.298;2023-08-20T07:17:21;22.42;;;3.85;;
22614;SDS011;11474;50.790;0.298;2023-08-20T07:19:47;15.55;;;3.63;;
22614;SDS011;11474;50.790;0.298;2023-08-20T07:22:14;19.23;;;3.85;;
22614;SDS011;11474;50.790;0.298;2023-08-20T07:24:40;18.63;;;3.60;;
22614;SDS011;11474;50.790;0.298;2023-08-20T07:27:06;14.90;;;3.13;;
22614;SDS011;11474;50.790;0.298;2023-08-20T07:29:37;18.20;;;3.70;;
22614;SDS011;11474;50.790;0.298;2023-08-20T07:32:03;21.02;;;3.38;;
22614;SDS011;11474;50.790;0.298;2023-08-20T07:34:29;17.23;;;3.10;;
22614;SDS011;11474;50.790;0.298;2023-08-20T07:36:56;16.77;;;3.08;;
22614;SDS011;11474;50.790;0.298;2023-08-20T07:39:22;14.90;;;3.00;;
22614;SDS011;11474;50.790;0.298;2023-08-20T07:41:48;20.05;;;3.40;;
22614;SDS011;11474;50.790;0.298;2023-08-20T07:44:14;17.60;;;3.20;;
22614;SDS011;11474;50.790;0.298;2023-08-20T07:46:40;19.40;;;3.35;;
22614;SDS011;11474;50.790;0.298;2023-08-20T07:49:06;17.70;;;3.17;;
22614;SDS011;11474;50.790;0.298;2023-08-20T07:51:33;18.58;;;2.95;;
22614;SDS011;11474;50.790;0.298;2023-08-20T07:53:59;15.55;;;3.00;;
22614;SDS011;11474;50.790;0.298;2023-08-20T07:56:26;16.88;;;2.83;;
22614;SDS011;11474;50.790;0.298;2023-08-20T07:58:52;14.13;;;3.05;;
22614;SDS011;11474;50.790;0.298;2023-08-20T08:01:18;17.25;;;2.70;;
22614;SDS011;11474;50.790;0.298;2023-08-20T08:03:44;17.10;;;2.88;;
22614;SDS011;11474;50.790;0.298;2023-08-20T08:06:10;16.93;;;2.80;;
22614;SDS011;11474;50.790;0.298;2023-08-20T08:08:37;13.88;;;2.53;;
22614;SDS011;11474;50.790;0.298;2023-08-20T08:11:03;13.98;;;3.05;;
22614;SDS011;11474;50.790;0.298;2023-08-20T08:13:30;13.13;;;2.88;;
22614;SDS011;11474;50.790;0.298;2023-08-20T08:15:56;16.65;;;2.60;;
22614;SDS011;11474;50.790;0.298;2023-08-20T08:18:22;13.40;;;2.55;;
22614;SDS011;11474;50.790;0.298;2023-08-20T08:20:48;14.20;;;2.78;;
22614;SDS011;11474;50.790;0.298;2023-08-20T08:23:15;13.10;;;2.42;;
22614;SDS011;11474;50.790;0.298;2023-08-20T08:25:41;17.00;;;3.08;;
22614;SDS011;11474;50.790;0.298;2023-08-20T08:28:07;17.02;;;3.55;;
22614;SDS011;11474;50.790;0.298;2023-08-20T08:30:33;23.48;;;3.40;;
22614;SDS011;11474;50.790;0.298;2023-08-20T08:32:59;19.15;;;3.35;;
22614;SDS011;11474;50.790;0.298;2023-08-20T08:35:25;20.50;;;3.60;;
22614;SDS011;11474;50.790;0.298;2023-08-20T08:37:51;17.70;;;3.70;;
22614;SDS011;11474;50.790;0.298;2023-08-20T08:40:17;17.30;;;3.38;;
22614;SDS011;11474;50.790;0.298;2023-08-20T08:42:45;20.80;;;3.83;;
22614;SDS011;11474;50.790;0.298;2023-08-20T08:45:13;22.30;;;3.30;;
22614;SDS011;11474;50.790;0.298;2023-08-20T08:47:39;19.45;;;3.22;;
22614;SDS011;11474;50.790;0.298;2023-08-20T08:50:05;22.98;;;4.80;;
22614;SDS011;11474;50.790;0.298;2023-08-20T08:52:32;20.45;;;3.58;;
22614;SDS011;11474;50.790;0.298;2023-08-20T08:54:59;16.50;;;3.40;;
22614;SDS011;11474;50.790;0.298;2023-08-20T08:57:25;19.33;;;3.88;;
22614;SDS011;11474;50.790;0.298;2023-08-20T08:59:51;11.48;;;2.17;;
22614;SDS011;11474;50.790;0.298;2023-08-20T09:02:17;13.02;;;2.22;;
22614;SDS011;11474;50.790;0.298;2023-08-20T09:04:44;13.60;;;2.90;;
22614;SDS011;11474;50.790;0.298;2023-08-20T09:07:11;18.53;;;3.00;;
22614;SDS011;11474;50.790;0.298;2023-08-20T09:09:37;13.13;;;2.50;;
22614;SDS011;11474;50.790;0.298;2023-08-20T09:12:13;16.38;;;2.78;;
22614;SDS011;11474;50.790;0.298;2023-08-20T09:14:40;14.52;;;3.00;;
22614;SDS011;11474;50.790;0.298;2023-08-20T09:17:09;16.38;;;2.85;;
22614;SDS011;11474;50.790;0.298;2023-08-20T09:19:35;13.10;;;2.95;;
22614;SDS011;11474;50.790;0.298;2023-08-20T09:22:02;14.93;;;2.47;;
22614;SDS011;11474;50.790;0.298;2023-08-20T09:24:39;14.27;;;2.37;;
22614;SDS011;11474;50.790;0.298;2023-08-20T09:27:07;12.57;;;2.60;;
22614;SDS011;11474;50.790;0.298;2023-08-20T09:29:34;16.38;;;2.92;;
22614;SDS011;11474;50.790;0.298;2023-08-20T09:32:09;12.85;;;2.28;;
22614;SDS011;11474;50.790;0.298;2023-08-20T09:34:39;12.80;;;2.30;;
22614;SDS011;11474;50.790;0.298;2023-08-20T09:37:15;14.65;;;2.50;;
22614;SDS011;11474;50.790;0.298;2023-08-20T09:39:41;12.15;;;2.50;;
22614;SDS011;11474;50.790;0.298;2023-08-20T09:42:08;12.75;;;2.47;;
22614;SDS011;11474;50.790;0.298;2023-08-20T09:44:35;15.50;;;2.75;;
22614;SDS011;11474;50.790;0.298;2023-08-20T09:47:02;11.68;;;2.60;;
22614;SDS011;11474;50.790;0.298;2023-08-20T09:49:30;15.75;;;2.70;;
22614;SDS011;11474;50.790;0.298;2023-08-20T09:51:58;16.23;;;3.13;;
22614;SDS011;11474;50.790;0.298;2023-08-20T09:54:36;18.05;;;3.22;;
22614;SDS011;11474;50.790;0.298;2023-08-20T09:57:02;18.15;;;3.17;;
22614;SDS011;11474;50.790;0.298;2023-08-20T09:59:33;14.77;;;2.40;;
22614;SDS011;11474;50.790;0.298;2023-08-20T10:02:01;11.27;;;2.72;;
22614;SDS011;11474;50.790;0.298;2023-08-20T10:04:28;14.30;;;2.63;;
22614;SDS011;11474;50.790;0.298;2023-08-20T10:06:54;11.98;;;2.35;;
22614;SDS011;11474;50.790;0.298;2023-08-20T10:09:21;14.75;;;3.15;;
22614;SDS011;11474;50.790;0.298;2023-08-20T10:11:47;11.15;;;2.28;;
22614;SDS011;11474;50.790;0.298;2023-08-20T10:14:13;12.75;;;2.60;;
22614;SDS011;11474;50.790;0.298;2023-08-20T10:16:39;12.25;;;3.00;;
22614;SDS011;11474;50.790;0.298;2023-08-20T10:19:05;13.45;;;2.33;;
22614;SDS011;11474;50.790;0.298;2023-08-20T10:21:32;11.77;;;2.58;;
22614;SDS011;11474;50.790;0.298;2023-08-20T10:24:03;9.25;;;2.10;;
22614;SDS011;11474;50.790;0.298;2023-08-20T10:26:29;15.65;;;2.65;;
22614;SDS011;11474;50.790;0.298;2023-08-20T10:31:46;13.82;;;2.40;;
22614;SDS011;11474;50.790;0.298;2023-08-20T10:34:12;11.00;;;2.43;;
22614;SDS011;11474;50.790;0.298;2023-08-20T10:36:58;15.50;;;2.67;;
22614;SDS011;11474;50.790;0.298;2023-08-20T10:39:27;13.00;;;2.30;;
22614;SDS011;11474;50.790;0.298;2023-08-20T10:44:56;14.10;;;2.83;;
22614;SDS011;11474;50.790;0.298;2023-08-20T10:47:23;14.93;;;2.70;;
22614;SDS011;11474;50.790;0.298;2023-08-20T10:49:53;15.07;;;3.20;;
22614;SDS011;11474;50.790;0.298;2023-08-20T10:52:23;14.15;;;2.83;;
22614;SDS011;11474;50.790;0.298;2023-08-20T10:54:49;12.47;;;2.37;;
22614;SDS011;11474;50.790;0.298;2023-08-20T10:57:16;13.90;;;2.53;;
22614;SDS011;11474;50.790;0.298;2023-08-20T10:59:43;14.32;;;2.53;;
22614;SDS011;11474;50.790;0.298;2023-08-20T11:02:11;11.73;;;2.53;;
22614;SDS011;11474;50.790;0.298;2023-08-20T11:04:40;9.77;;;2.30;;
22614;SDS011;11474;50.790;0.298;2023-08-20T11:07:07;8.10;;;2.08;;
22614;SDS011;11474;50.790;0.298;2023-08-20T11:09:34;14.93;;;2.77;;
22614;SDS011;11474;50.790;0.298;2023-08-20T11:12:00;13.07;;;2.15;;
22614;SDS011;11474;50.790;0.298;2023-08-20T11:14:26;13.02;;;2.67;;
22614;SDS011;11474;50.790;0.298;2023-08-20T11:16:52;17.40;;;2.15;;
22614;SDS011;11474;50.790;0.298;2023-08-20T11:19:19;14.23;;;2.90;;
22614;SDS011;11474;50.790;0.298;2023-08-20T11:21:45;12.25;;;2.17;;
22614;SDS011;11474;50.790;0.298;2023-08-20T11:24:12;10.52;;;2.15;;
22614;SDS011;11474;50.790;0.298;2023-08-20T11:26:39;12.20;;;2.47;;
22614;SDS011;11474;50.790;0.298;2023-08-20T11:29:06;14.80;;;2.67;;
22614;SDS011;11474;50.790;0.298;2023-08-20T11:31:32;10.73;;;2.10;;
22614;SDS011;11474;50.790;0.298;2023-08-20T11:33:58;11.82;;;2.22;;
22614;SDS011;11474;50.790;0.298;2023-08-20T11:36:24;10.13;;;2.08;;
22614;SDS011;11474;50.790;0.298;2023-08-20T11:38:51;14.23;;;2.47;;
22614;SDS011;11474;50.790;0.298;2023-08-20T11:41:17;13.80;;;2.60;;
22614;SDS011;11474;50.790;0.298;2023-08-20T11:43:44;13.83;;;2.60;;
22614;SDS011;11474;50.790;0.298;2023-08-20T11:46:17;11.07;;;2.40;;
22614;SDS011;11474;50.790;0.298;2023-08-20T11:49:02;15.68;;;2.92;;
22614;SDS011;11474;50.790;0.298;2023-08-20T11:51:29;13.90;;;2.72;;
22614;SDS011;11474;50.790;0.298;2023-08-20T11:53:58;12.43;;;2.88;;
22614;SDS011;11474;50.790;0.298;2023-08-20T11:56:24;14.50;;;3.00;;
22614;SDS011;11474;50.790;0.298;2023-08-20T11:58:50;15.07;;;3.08;;
22614;SDS011;11474;50.790;0.298;2023-08-20T12:01:19;10.43;;;2.10;;
22614;SDS011;11474;50.790;0.298;2023-08-20T12:03:45;11.95;;;2.40;;
22614;SDS011;11474;50.790;0.298;2023-08-20T12:08:44;16.15;;;2.80;;
22614;SDS011;11474;50.790;0.298;2023-08-20T12:11:10;16.08;;;3.33;;
22614;SDS011;11474;50.790;0.298;2023-08-20T12:13:36;14.38;;;2.50;;
22614;SDS011;11474;50.790;0.298;2023-08-20T12:16:02;13.25;;;2.85;;
22614;SDS011;11474;50.790;0.298;2023-08-20T12:18:29;12.43;;;2.50;;
22614;SDS011;11474;50.790;0.298;2023-08-20T12:20:55;11.93;;;2.42;;
22614;SDS011;11474;50.790;0.298;2023-08-20T12:23:21;12.18;;;2.30;;
22614;SDS011;11474;50.790;0.298;2023-08-20T12:25:50;13.00;;;2.30;;
22614;SDS011;11474;50.790;0.298;2023-08-20T12:28:16;7.97;;;1.77;;
22614;SDS011;11474;50.790;0.298;2023-08-20T12:30:43;9.25;;;2.20;;
22614;SDS011;11474;50.790;0.298;2023-08-20T12:33:09;14.02;;;2.65;;
22614;SDS011;11474;50.790;0.298;2023-08-20T12:35:36;13.80;;;2.65;;
22614;SDS011;11474;50.790;0.298;2023-08-20T12:38:02;12.13;;;2.30;;
22614;SDS011;11474;50.790;0.298;2023-08-20T12:40:29;13.75;;;2.30;;
22614;SDS011;11474;50.790;0.298;2023-08-20T12:42:55;14.55;;;2.65;;
22614;SDS011;11474;50.790;0.298;2023-08-20T12:45:21;14.70;;;2.40;;
22614;SDS011;11474;50.790;0.298;2023-08-20T12:47:47;10.02;;;2.53;;
22614;SDS011;11474;50.790;0.298;2023-08-20T12:50:13;10.32;;;2.25;;
22614;SDS011;11474;50.790;0.298;2023-08-20T12:52:40;11.77;;;2.50;;
22614;SDS011;11474;50.790;0.298;2023-08-20T12:55:06;17.03;;;2.73;;
22614;SDS011;11474;50.790;0.298;2023-08-20T12:57:35;15.38;;;3.03;;
22614;SDS011;11474;50.790;0.298;2023-08-20T13:00:04;12.57;;;2.55;;
22614;SDS011;11474;50.790;0.298;2023-08-20T13:02:36;16.27;;;3.30;;
22614;SDS011;11474;50.790;0.298;2023-08-20T13:05:02;16.03;;;2.63;;
22614;SDS011;11474;50.790;0.298;2023-08-20T13:07:30;13.32;;;2.50;;
22614;SDS011;11474;50.790;0.298;2023-08-20T13:09:56;15.23;;;2.53;;
22614;SDS011;11474;50.790;0.298;2023-08-20T13:12:22;12.20;;;2.10;;
22614;SDS011;11474;50.790;0.298;2023-08-20T13:14:51;14.02;;;2.40;;
22614;SDS011;11474;50.790;0.298;2023-08-20T13:17:18;14.20;;;2.70;;
22614;SDS011;11474;50.790;0.298;2023-08-20T13:19:44;11.80;;;2.40;;
22614;SDS011;11474;50.790;0.298;2023-08-20T13:22:10;16.02;;;2.83;;
22614;SDS011;11474;50.790;0.298;2023-08-20T13:24:36;10.93;;;2.20;;
22614;SDS011;11474;50.790;0.298;2023-08-20T13:27:02;13.35;;;2.97;;
22614;SDS011;11474;50.790;0.298;2023-08-20T13:29:28;9.63;;;2.53;;
22614;SDS011;11474;50.790;0.298;2023-08-20T13:31:54;14.48;;;2.70;;
22614;SDS011;11474;50.790;0.298;2023-08-20T13:34:21;12.80;;;2.88;;
22614;SDS011;11474;50.790;0.298;2023-08-20T13:36:47;11.60;;;2.28;;
22614;SDS011;11474;50.790;0.298;2023-08-20T13:39:13;15.27;;;2.73;;
22614;SDS011;11474;50.790;0.298;2023-08-20T13:41:40;15.68;;;2.25;;
22614;SDS011;11474;50.790;0.298;2023-08-20T13:44:08;13.38;;;2.58;;
22614;SDS011;11474;50.790;0.298;2023-08-20T13:46:35;13.70;;;2.75;;
22614;SDS011;11474;50.790;0.298;2023-08-20T13:49:03;14.57;;;2.47;;
22614;SDS011;11474;50.790;0.298;2023-08-20T13:51:29;12.32;;;2.83;;
22614;SDS011;11474;50.790;0.298;2023-08-20T13:53:56;14.57;;;3.30;;
22614;SDS011;11474;50.790;0.298;2023-08-20T13:56:23;13.85;;;2.50;;
22614;SDS011;11474;50.790;0.298;2023-08-20T13:58:50;15.30;;;2.78;;
22614;SDS011;11474;50.790;0.298;2023-08-20T14:01:17;15.25;;;2.78;;
22614;SDS011;11474;50.790;0.298;2023-08-20T14:03:43;16.17;;;2.85;;
22614;SDS011;11474;50.790;0.298;2023-08-20T14:06:09;11.33;;;2.30;;
22614;SDS011;11474;50.790;0.298;2023-08-20T14:08:35;14.83;;;2.90;;
22614;SDS011;11474;50.790;0.298;2023-08-20T14:11:01;13.32;;;2.55;;
22614;SDS011;11474;50.790;0.298;2023-08-20T14:13:28;11.47;;;2.70;;
22614;SDS011;11474;50.790;0.298;2023-08-20T14:15:54;11.50;;;2.35;;
22614;SDS011;11474;50.790;0.298;2023-08-20T14:18:20;12.95;;;2.72;;
22614;SDS011;11474;50.790;0.298;2023-08-20T14:20:47;10.10;;;2.33;;
22614;SDS011;11474;50.790;0.298;2023-08-20T14:23:13;16.40;;;3.08;;
22614;SDS011;11474;50.790;0.298;2023-08-20T14:25:39;13.65;;;2.78;;
22614;SDS011;11474;50.790;0.298;2023-08-20T14:28:06;12.63;;;2.25;;
22614;SDS011;11474;50.790;0.298;2023-08-20T14:30:35;14.13;;;2.50;;
22614;SDS011;11474;50.790;0.298;2023-08-20T14:33:02;12.40;;;2.53;;
22614;SDS011;11474;50.790;0.298;2023-08-20T14:35:28;14.40;;;2.97;;
22614;SDS011;11474;50.790;0.298;2023-08-20T14:37:54;14.45;;;2.65;;
22614;SDS011;11474;50.790;0.298;2023-08-20T14:40:20;13.85;;;2.30;;
22614;SDS011;11474;50.790;0.298;2023-08-20T14:42:46;13.50;;;2.70;;
22614;SDS011;11474;50.790;0.298;2023-08-20T14:45:13;13.40;;;2.67;;
22614;SDS011;11474;50.790;0.298;2023-08-20T14:47:39;17.10;;;2.60;;